createdAt,value
2019-01-08T00:00:29.101Z,3.77
2019-01-08T00:02:57.613Z,4.60
2019-01-08T00:05:26.170Z,3.60
2019-01-08T00:07:54.694Z,5.67
2019-01-08T00:10:23.177Z,4.80
2019-01-08T00:12:51.677Z,4.77
2019-01-08T00:15:20.165Z,4.73
2019-01-08T00:17:48.745Z,6.00
2019-01-08T00:20:17.238Z,4.30
2019-01-08T00:22:45.819Z,4.80
2019-01-08T00:25:14.377Z,4.60
2019-01-08T00:27:42.885Z,3.93
2019-01-08T00:30:11.370Z,5.30
2019-01-08T00:32:39.953Z,5.20
2019-01-08T00:35:08.447Z,4.43
2019-01-08T00:37:37.037Z,4.77
2019-01-08T00:40:07.330Z,4.87
2019-01-08T00:42:35.889Z,5.07
2019-01-08T00:45:04.569Z,4.57
2019-01-08T00:47:33.170Z,4.43
2019-01-08T00:50:01.746Z,4.70
2019-01-08T00:52:30.230Z,4.20
2019-01-08T00:54:58.814Z,5.00
2019-01-08T00:57:27.374Z,5.53
2019-01-08T00:59:55.964Z,5.33
2019-01-08T01:02:24.516Z,4.30
2019-01-08T01:04:53.126Z,5.40
2019-01-08T01:07:21.682Z,3.50
2019-01-08T01:09:50.199Z,4.67
2019-01-08T01:12:18.840Z,4.37
2019-01-08T01:14:47.368Z,5.27
2019-01-08T01:17:15.871Z,5.37
2019-01-08T01:19:44.449Z,3.67
2019-01-08T01:22:12.941Z,3.90
2019-01-08T01:24:41.454Z,4.20
2019-01-08T01:27:09.935Z,5.20
2019-01-08T01:29:38.446Z,4.90
2019-01-08T01:32:07.001Z,4.27
2019-01-08T01:34:35.506Z,4.63
2019-01-08T01:37:04.016Z,5.57
2019-01-08T01:39:32.586Z,4.70
2019-01-08T01:42:01.162Z,4.87
2019-01-08T01:44:29.722Z,5.23
2019-01-08T01:46:58.335Z,4.60
2019-01-08T01:49:26.908Z,4.50
2019-01-08T01:51:55.486Z,4.43
2019-01-08T01:54:24.037Z,4.30
2019-01-08T01:56:52.617Z,5.57
2019-01-08T01:59:21.184Z,4.40
2019-01-08T02:01:49.767Z,5.93
2019-01-08T02:04:18.346Z,4.33
2019-01-08T02:06:46.853Z,4.87
2019-01-08T02:09:15.413Z,4.70
2019-01-08T02:11:43.922Z,4.23
2019-01-08T02:14:12.406Z,4.70
2019-01-08T02:16:40.988Z,4.37
2019-01-08T02:19:09.547Z,5.00
2019-01-08T02:21:38.139Z,4.97
2019-01-08T02:24:06.693Z,5.63
2019-01-08T02:26:35.196Z,4.60
2019-01-08T02:29:03.761Z,6.33
2019-01-08T02:31:32.346Z,4.97
2019-01-08T02:34:00.839Z,4.07
2019-01-08T02:36:29.399Z,4.30
2019-01-08T02:38:57.975Z,5.00
2019-01-08T02:41:26.659Z,4.57
2019-01-08T02:43:55.357Z,5.80
2019-01-08T02:46:23.897Z,4.50
2019-01-08T02:48:52.497Z,4.93
2019-01-08T02:51:21.075Z,5.13
2019-01-08T02:53:49.661Z,4.47
2019-01-08T02:56:18.213Z,4.40
2019-01-08T02:58:46.739Z,4.40
2019-01-08T03:01:15.324Z,4.47
2019-01-08T03:03:43.913Z,4.77
2019-01-08T03:06:12.481Z,4.97
2019-01-08T03:08:40.989Z,5.20
2019-01-08T03:11:09.482Z,4.17
2019-01-08T03:13:38.066Z,4.70
2019-01-08T03:16:06.626Z,4.90
2019-01-08T03:18:35.204Z,4.00
2019-01-08T03:21:03.694Z,3.63
2019-01-08T03:23:32.272Z,4.57
2019-01-08T03:26:00.757Z,4.33
2019-01-08T03:28:29.243Z,5.17
2019-01-08T03:30:57.751Z,4.20
2019-01-08T03:33:26.377Z,5.13
2019-01-08T03:35:54.894Z,4.90
2019-01-08T03:38:23.383Z,5.07
2019-01-08T03:40:51.909Z,4.23
2019-01-08T03:43:20.480Z,4.87
2019-01-08T03:45:49.121Z,5.30
2019-01-08T03:48:17.621Z,5.17
2019-01-08T03:50:46.124Z,5.63
2019-01-08T03:53:14.641Z,4.43
2019-01-08T03:55:43.209Z,4.90
2019-01-08T03:58:11.697Z,4.70
2019-01-08T04:00:40.207Z,5.07
2019-01-08T04:03:08.777Z,4.60
2019-01-08T04:05:37.286Z,4.67
2019-01-08T04:08:05.798Z,4.77
2019-01-08T04:10:34.380Z,3.93
2019-01-08T04:13:02.932Z,4.40
2019-01-08T04:15:31.581Z,4.17
2019-01-08T04:18:00.073Z,4.90
2019-01-08T04:20:28.650Z,4.53
2019-01-08T04:22:57.232Z,4.27
2019-01-08T04:25:25.784Z,5.60
2019-01-08T04:27:54.381Z,4.37
2019-01-08T04:30:22.950Z,3.93
2019-01-08T04:32:51.532Z,5.17
2019-01-08T04:35:20.018Z,4.47
2019-01-08T04:37:48.601Z,5.03
2019-01-08T04:40:17.160Z,4.17
2019-01-08T04:42:45.743Z,4.63
2019-01-08T04:45:14.859Z,3.80
2019-01-08T04:47:43.506Z,3.97
2019-01-08T04:50:12.205Z,3.73
2019-01-08T04:52:40.717Z,4.17
2019-01-08T04:55:09.285Z,3.40
2019-01-08T04:57:37.858Z,4.00
2019-01-08T05:00:09.268Z,4.30
2019-01-08T05:02:37.818Z,3.63
2019-01-08T05:05:06.394Z,4.80
2019-01-08T05:07:34.955Z,4.03
2019-01-08T05:10:04.077Z,3.37
2019-01-08T05:12:32.645Z,3.50
2019-01-08T05:15:01.293Z,3.10
2019-01-08T05:17:29.789Z,2.40
2019-01-08T05:19:58.374Z,3.07
2019-01-08T05:22:26.937Z,3.23
2019-01-08T05:24:55.442Z,3.63
2019-01-08T05:27:23.930Z,3.83
2019-01-08T05:29:52.515Z,3.30
2019-01-08T05:32:21.073Z,3.93
2019-01-08T05:34:49.581Z,4.37
2019-01-08T05:37:18.146Z,3.77
2019-01-08T05:39:46.725Z,3.37
2019-01-08T05:42:15.210Z,3.93
2019-01-08T05:44:43.793Z,3.07
2019-01-08T05:47:12.270Z,3.03
2019-01-08T05:49:40.853Z,2.93
2019-01-08T05:52:09.348Z,2.50
2019-01-08T05:54:37.858Z,3.33
2019-01-08T05:57:06.413Z,3.97
2019-01-08T05:59:35.001Z,2.70
2019-01-08T06:02:03.559Z,3.00
2019-01-08T06:04:32.143Z,3.30
2019-01-08T06:07:00.624Z,3.67
2019-01-08T06:09:29.115Z,3.63
2019-01-08T06:11:57.697Z,3.97
2019-01-08T06:14:26.279Z,3.10
2019-01-08T06:16:54.849Z,3.87
2019-01-08T06:19:23.349Z,4.00
2019-01-08T06:21:51.935Z,3.40
2019-01-08T06:24:20.501Z,3.77
2019-01-08T06:26:49.072Z,4.57
2019-01-08T06:29:17.565Z,3.83
2019-01-08T06:31:46.078Z,4.00
2019-01-08T06:34:14.637Z,3.43
2019-01-08T06:36:43.140Z,3.57
2019-01-08T06:39:11.651Z,3.37
2019-01-08T06:41:40.233Z,5.37
2019-01-08T06:44:08.720Z,4.20
2019-01-08T06:46:42.913Z,3.57
2019-01-08T06:49:07.501Z,3.60
2019-01-08T06:51:36.086Z,4.00
2019-01-08T06:54:04.674Z,4.20
2019-01-08T06:56:33.172Z,4.07
2019-01-08T06:59:01.769Z,3.90
2019-01-08T07:01:30.328Z,3.77
2019-01-08T07:03:58.833Z,4.20
2019-01-08T07:06:27.414Z,4.10
2019-01-08T07:08:55.922Z,3.93
2019-01-08T07:11:24.482Z,5.93
2019-01-08T07:13:53.057Z,3.77
2019-01-08T07:16:21.540Z,3.47
2019-01-08T07:18:50.130Z,4.20
2019-01-08T07:21:18.622Z,3.70
2019-01-08T07:23:47.207Z,3.30
2019-01-08T07:26:15.766Z,4.03
2019-01-08T07:28:44.273Z,4.30
2019-01-08T07:31:12.753Z,3.93
2019-01-08T07:33:41.254Z,4.50
2019-01-08T07:36:09.754Z,4.70
2019-01-08T07:38:38.350Z,4.07
2019-01-08T07:41:06.913Z,3.97
2019-01-08T07:43:35.514Z,4.37
2019-01-08T07:46:04.065Z,3.90
2019-01-08T07:48:32.659Z,5.30
2019-01-08T07:51:01.220Z,4.73
2019-01-08T07:53:29.786Z,4.50
2019-01-08T07:55:58.367Z,4.63
2019-01-08T07:58:26.946Z,4.20
2019-01-08T08:00:55.516Z,5.40
2019-01-08T08:03:24.069Z,4.97
2019-01-08T08:05:52.585Z,6.03
2019-01-08T08:08:21.141Z,4.67
2019-01-08T08:10:49.666Z,5.00
2019-01-08T08:13:18.226Z,5.63
2019-01-08T08:15:46.812Z,4.40
2019-01-08T08:18:15.379Z,5.00
2019-01-08T08:20:43.981Z,4.20
2019-01-08T08:23:12.541Z,4.90
2019-01-08T08:25:41.049Z,4.07
2019-01-08T08:28:09.541Z,3.90
2019-01-08T08:30:38.050Z,3.93
2019-01-08T08:33:06.633Z,3.47
2019-01-08T08:35:35.226Z,4.40
2019-01-08T08:38:03.774Z,5.00
2019-01-08T08:40:32.369Z,3.93
2019-01-08T08:43:00.840Z,4.60
2019-01-08T08:45:29.442Z,3.83
2019-01-08T08:47:57.996Z,4.73
2019-01-08T08:50:26.533Z,3.90
2019-01-08T08:52:55.086Z,4.40
2019-01-08T08:55:23.662Z,3.53
2019-01-08T08:57:52.154Z,4.87
2019-01-08T09:00:20.719Z,3.93
2019-01-08T09:02:49.293Z,4.83
2019-01-08T09:05:17.832Z,5.40
2019-01-08T09:07:46.390Z,3.03
2019-01-08T09:10:14.945Z,4.23
2019-01-08T09:12:43.532Z,4.67
2019-01-08T09:15:12.160Z,4.93
2019-01-08T09:17:40.675Z,4.17
2019-01-08T09:20:10.178Z,3.57
2019-01-08T09:22:38.684Z,3.67
2019-01-08T09:25:07.609Z,3.47
2019-01-08T09:27:36.211Z,3.70
2019-01-08T09:30:07.692Z,3.60
2019-01-08T09:32:36.250Z,4.40
2019-01-08T09:35:05.549Z,4.77
2019-01-08T09:37:34.134Z,5.33
2019-01-08T09:40:02.783Z,5.40
2019-01-08T09:42:31.356Z,5.30
2019-01-08T09:44:59.851Z,5.57
2019-01-08T09:47:28.445Z,4.80
2019-01-08T09:49:57.024Z,5.70
2019-01-08T09:52:25.605Z,5.80
2019-01-08T09:54:54.157Z,5.87
2019-01-08T09:57:22.666Z,7.33
2019-01-08T09:59:51.227Z,6.67
2019-01-08T10:02:19.818Z,6.23
2019-01-08T10:04:48.379Z,6.33
2019-01-08T10:07:16.955Z,6.13
2019-01-08T10:09:45.597Z,7.33
2019-01-08T10:12:14.177Z,8.00
2019-01-08T10:14:42.741Z,7.77
2019-01-08T10:17:11.321Z,7.43
2019-01-08T10:19:39.815Z,5.93
2019-01-08T10:22:08.409Z,5.87
2019-01-08T10:24:36.893Z,6.30
2019-01-08T10:27:05.525Z,5.87
2019-01-08T10:29:34.032Z,6.87
2019-01-08T10:32:02.527Z,5.80
2019-01-08T10:34:31.102Z,5.60
2019-01-08T10:36:59.611Z,6.53
2019-01-08T10:39:28.182Z,5.87
2019-01-08T10:41:56.752Z,6.23
2019-01-08T10:44:25.339Z,6.17
2019-01-08T10:46:53.888Z,6.30
2019-01-08T10:49:22.414Z,6.17
2019-01-08T10:51:50.902Z,7.53
2019-01-08T10:54:19.491Z,5.43
2019-01-08T10:56:48.052Z,4.67
2019-01-08T10:59:16.622Z,4.40
2019-01-08T11:01:45.177Z,5.63
2019-01-08T11:04:13.788Z,3.40
2019-01-08T11:06:42.355Z,4.53
2019-01-08T11:09:10.943Z,4.00
2019-01-08T11:11:39.522Z,4.97
2019-01-08T11:14:08.106Z,4.13
2019-01-08T11:16:36.656Z,4.67
2019-01-08T11:19:05.161Z,6.03
2019-01-08T11:21:33.721Z,5.83
2019-01-08T11:24:02.242Z,4.93
2019-01-08T11:26:30.742Z,5.27
2019-01-08T11:28:59.441Z,5.40
2019-01-08T11:31:28.001Z,6.00
2019-01-08T11:33:56.522Z,5.00
2019-01-08T11:36:25.106Z,6.03
2019-01-08T11:38:53.690Z,7.57
2019-01-08T11:41:22.245Z,5.77
2019-01-08T11:43:50.753Z,5.73
2019-01-08T11:46:19.315Z,5.97
2019-01-08T11:48:47.897Z,6.50
2019-01-08T11:51:16.376Z,5.30
2019-01-08T11:53:44.890Z,5.57
2019-01-08T11:56:13.374Z,7.73
2019-01-08T11:58:41.913Z,5.30
2019-01-08T12:01:10.476Z,5.97
2019-01-08T12:03:39.038Z,6.00
2019-01-08T12:06:07.550Z,5.03
2019-01-08T12:08:36.108Z,5.27
2019-01-08T12:11:04.686Z,4.50
2019-01-08T12:13:33.265Z,4.57
2019-01-08T12:16:01.853Z,4.83
2019-01-08T12:18:30.333Z,5.80
2019-01-08T12:20:58.837Z,7.00
2019-01-08T12:23:27.330Z,5.17
2019-01-08T12:25:55.901Z,5.57
2019-01-08T12:28:24.417Z,6.10
2019-01-08T12:30:52.989Z,6.73
2019-01-08T12:33:21.473Z,4.97
2019-01-08T12:35:49.976Z,3.63
2019-01-08T12:38:18.469Z,3.43
2019-01-08T12:40:46.979Z,4.57
2019-01-08T12:43:15.553Z,4.00
2019-01-08T12:45:44.121Z,3.50
2019-01-08T12:48:12.609Z,4.30
2019-01-08T12:50:41.122Z,3.77
2019-01-08T12:53:09.689Z,3.37
2019-01-08T12:55:38.304Z,4.03
2019-01-08T12:58:06.859Z,4.80
2019-01-08T13:00:35.509Z,3.87
2019-01-08T13:03:04.082Z,4.37
2019-01-08T13:05:32.660Z,5.23
2019-01-08T13:08:01.146Z,6.03
2019-01-08T13:10:29.721Z,3.23
2019-01-08T13:12:58.208Z,4.10
2019-01-08T13:15:26.725Z,3.47
2019-01-08T13:17:55.302Z,2.90
2019-01-08T13:20:23.886Z,2.47
2019-01-08T13:22:52.447Z,2.80
2019-01-08T13:25:20.963Z,3.70
2019-01-08T13:27:49.538Z,2.73
2019-01-08T13:30:18.108Z,3.57
2019-01-08T13:32:46.759Z,2.77
2019-01-08T13:35:15.773Z,3.20
2019-01-08T13:37:44.415Z,4.53
2019-01-08T13:40:12.992Z,4.00
2019-01-08T13:42:44.382Z,3.00
2019-01-08T13:45:12.870Z,4.23
2019-01-08T13:47:41.443Z,4.20
2019-01-08T13:50:09.993Z,3.30
2019-01-08T13:52:38.594Z,3.67
2019-01-08T13:55:07.225Z,3.70
2019-01-08T13:57:35.730Z,4.00
2019-01-08T14:00:06.738Z,3.67
2019-01-08T14:02:35.320Z,3.43
2019-01-08T14:05:04.043Z,4.73
2019-01-08T14:07:32.626Z,3.47
2019-01-08T14:10:01.109Z,3.77
2019-01-08T14:12:29.626Z,3.73
2019-01-08T14:14:58.202Z,3.57
2019-01-08T14:17:28.489Z,5.07
2019-01-08T14:19:57.060Z,3.50
2019-01-08T14:22:25.572Z,3.37
2019-01-08T14:24:54.138Z,5.43
2019-01-08T14:27:22.716Z,3.70
2019-01-08T14:29:51.210Z,3.83
2019-01-08T14:32:19.693Z,4.57
2019-01-08T14:34:48.201Z,3.53
2019-01-08T14:37:16.778Z,3.53
2019-01-08T14:39:45.365Z,4.47
2019-01-08T14:42:13.917Z,3.60
2019-01-08T14:44:42.422Z,3.80
2019-01-08T14:47:10.910Z,3.90
2019-01-08T14:49:39.441Z,4.73
2019-01-08T14:52:08.082Z,4.73
2019-01-08T14:54:36.663Z,4.03
2019-01-08T14:57:05.297Z,4.60
2019-01-08T14:59:33.897Z,4.33
2019-01-08T15:02:02.406Z,4.23
2019-01-08T15:04:30.980Z,4.33
2019-01-08T15:06:59.644Z,4.70
2019-01-08T15:09:28.305Z,4.20
2019-01-08T15:11:56.866Z,4.30
2019-01-08T15:14:25.453Z,5.53
2019-01-08T15:16:53.954Z,4.13
2019-01-08T15:19:22.545Z,5.20
2019-01-08T15:21:51.167Z,4.17
2019-01-08T15:24:19.673Z,4.53
2019-01-08T15:26:48.231Z,4.93
2019-01-08T15:29:17.383Z,6.30
2019-01-08T15:31:45.896Z,6.17
2019-01-08T15:34:14.466Z,6.13
2019-01-08T15:36:43.046Z,6.50
2019-01-08T15:39:11.564Z,5.50
2019-01-08T15:41:40.070Z,5.60
2019-01-08T15:44:15.189Z,6.40
2019-01-08T15:46:38.950Z,4.97
2019-01-08T15:49:07.517Z,5.10
2019-01-08T15:51:36.105Z,5.13
2019-01-08T15:54:04.665Z,4.53
2019-01-08T15:56:33.253Z,4.67
2019-01-08T15:59:01.739Z,5.00
2019-01-08T16:01:30.318Z,4.77
2019-01-08T16:03:58.873Z,4.43
2019-01-08T16:06:27.386Z,4.40
2019-01-08T16:08:55.878Z,3.97
2019-01-08T16:11:24.463Z,4.43
2019-01-08T16:13:52.960Z,4.33
2019-01-08T16:16:21.542Z,3.73
2019-01-08T16:18:50.042Z,3.40
2019-01-08T16:21:18.562Z,2.93
2019-01-08T16:23:47.152Z,3.27
2019-01-08T16:26:15.744Z,3.67
2019-01-08T16:28:44.238Z,3.73
2019-01-08T16:31:12.812Z,3.90
2019-01-08T16:33:41.366Z,3.67
2019-01-08T16:36:09.865Z,3.93
2019-01-08T16:38:38.377Z,3.37
2019-01-08T16:41:06.886Z,2.90
2019-01-08T16:43:35.475Z,3.23
2019-01-08T16:46:04.033Z,3.10
2019-01-08T16:48:32.585Z,2.77
2019-01-08T16:51:01.077Z,2.63
2019-01-08T16:53:29.652Z,3.10
2019-01-08T16:55:58.142Z,3.50
2019-01-08T16:58:26.725Z,3.33
2019-01-08T17:00:55.217Z,3.03
2019-01-08T17:03:25.520Z,3.37
2019-01-08T17:05:53.990Z,3.70
2019-01-08T17:08:22.520Z,2.90
2019-01-08T17:10:51.073Z,4.33
2019-01-08T17:13:19.652Z,2.40
2019-01-08T17:15:48.213Z,2.60
2019-01-08T17:18:16.717Z,3.33
2019-01-08T17:20:45.210Z,3.90
2019-01-08T17:23:13.733Z,3.80
2019-01-08T17:25:47.740Z,2.70
2019-01-08T17:28:12.505Z,3.73
2019-01-08T17:30:41.065Z,3.80
2019-01-08T17:33:09.672Z,4.27
2019-01-08T17:35:38.237Z,3.70
2019-01-08T17:38:06.836Z,5.67
2019-01-08T17:40:35.331Z,5.73
2019-01-08T17:43:03.918Z,4.57
2019-01-08T17:45:32.486Z,5.60
2019-01-08T17:48:00.986Z,4.97
2019-01-08T17:50:29.471Z,5.63
2019-01-08T17:52:58.052Z,5.00
2019-01-08T17:55:26.694Z,4.83
2019-01-08T17:58:17.761Z,4.93
2019-01-08T18:00:46.593Z,4.47
2019-01-08T18:03:15.108Z,5.13
2019-01-08T18:05:43.665Z,5.00
2019-01-08T18:08:12.221Z,6.13
2019-01-08T18:10:40.777Z,5.80
2019-01-08T18:13:09.300Z,6.47
2019-01-08T18:15:38.176Z,4.90
2019-01-08T18:18:06.771Z,4.37
2019-01-08T18:20:35.320Z,4.70
2019-01-08T18:23:03.809Z,4.50
2019-01-08T18:25:32.309Z,5.03
2019-01-08T18:28:00.801Z,4.33
2019-01-08T18:30:29.384Z,5.17
2019-01-08T18:32:57.945Z,4.63
2019-01-08T18:35:26.530Z,4.70
2019-01-08T18:37:55.101Z,4.83
2019-01-08T18:40:23.755Z,4.50
2019-01-08T18:42:52.389Z,4.13
2019-01-08T18:45:20.976Z,4.73
2019-01-08T18:47:49.537Z,4.67
2019-01-08T18:50:18.052Z,5.00
2019-01-08T18:52:46.637Z,4.30
2019-01-08T18:55:15.197Z,3.73
2019-01-08T18:57:43.685Z,4.07
2019-01-08T19:00:12.338Z,4.80
2019-01-08T19:02:40.847Z,4.07
2019-01-08T19:05:09.427Z,3.90
2019-01-08T19:07:37.989Z,4.03
2019-01-08T19:10:12.846Z,5.03
2019-01-08T19:12:41.337Z,8.13
2019-01-08T19:15:09.981Z,6.10
2019-01-08T19:17:38.488Z,5.23
2019-01-08T19:20:07.276Z,5.10
2019-01-08T19:22:35.862Z,4.70
2019-01-08T19:25:05.155Z,5.47
2019-01-08T19:27:34.155Z,6.23
2019-01-08T19:30:02.798Z,5.63
2019-01-08T19:32:31.383Z,6.07
2019-01-08T19:35:00.019Z,5.57
2019-01-08T19:37:28.615Z,5.30
2019-01-08T19:39:57.097Z,5.93
2019-01-08T19:42:25.622Z,6.07
2019-01-08T19:44:54.213Z,5.53
2019-01-08T19:47:22.874Z,7.13
2019-01-08T19:49:51.432Z,4.80
2019-01-08T19:52:20.017Z,5.63
2019-01-08T19:54:48.590Z,6.90
2019-01-08T19:57:17.194Z,5.10
2019-01-08T19:59:45.820Z,6.40
2019-01-08T20:02:14.389Z,4.77
2019-01-08T20:04:42.884Z,4.47
2019-01-08T20:07:11.468Z,5.77
2019-01-08T20:09:40.039Z,4.33
2019-01-08T20:12:08.548Z,4.60
2019-01-08T20:14:37.041Z,5.80
2019-01-08T20:17:05.727Z,4.97
2019-01-08T20:19:34.230Z,4.27
2019-01-08T20:22:02.797Z,4.23
2019-01-08T20:24:31.310Z,5.27
2019-01-08T20:26:59.913Z,4.60
2019-01-08T20:29:28.474Z,4.40
2019-01-08T20:31:56.965Z,4.77
2019-01-08T20:34:26.909Z,6.53
2019-01-08T20:36:55.546Z,5.80
2019-01-08T20:39:24.129Z,4.77
2019-01-08T20:41:52.764Z,4.77
2019-01-08T20:44:21.279Z,5.50
2019-01-08T20:46:49.837Z,5.23
2019-01-08T20:49:18.422Z,5.20
2019-01-08T20:51:46.914Z,4.70
2019-01-08T20:54:15.491Z,4.50
2019-01-08T20:56:44.149Z,4.73
2019-01-08T20:59:12.734Z,4.53
2019-01-08T21:01:41.226Z,4.40
2019-01-08T21:04:09.734Z,4.37
2019-01-08T21:06:38.368Z,4.80
2019-01-08T21:09:07.103Z,4.97
2019-01-08T21:11:35.733Z,4.73
2019-01-08T21:14:04.247Z,4.77
2019-01-08T21:16:32.830Z,3.73
2019-01-08T21:19:01.418Z,4.77
2019-01-08T21:21:30.059Z,3.73
2019-01-08T21:23:58.633Z,4.07
2019-01-08T21:26:27.135Z,3.73
2019-01-08T21:28:55.774Z,3.50
2019-01-08T21:31:24.274Z,5.10
2019-01-08T21:33:53.137Z,3.67
2019-01-08T21:36:21.698Z,4.27
2019-01-08T21:38:50.264Z,5.30
2019-01-08T21:41:18.850Z,10.60
2019-01-08T21:43:47.402Z,4.30
2019-01-08T21:46:15.987Z,4.23
2019-01-08T21:48:44.549Z,3.50
2019-01-08T21:51:13.185Z,3.10
2019-01-08T21:53:41.838Z,3.20
2019-01-08T21:56:10.557Z,3.00
2019-01-08T21:58:39.201Z,3.40
2019-01-08T22:01:07.773Z,3.63
2019-01-08T22:03:36.264Z,2.70
2019-01-08T22:06:04.782Z,3.00
2019-01-08T22:08:33.677Z,2.60
2019-01-08T22:11:02.257Z,3.50
2019-01-08T22:13:30.747Z,2.67
2019-01-08T22:15:59.343Z,3.90
2019-01-08T22:18:27.918Z,3.77
2019-01-08T22:20:56.502Z,3.67
2019-01-08T22:23:25.063Z,3.27
2019-01-08T22:25:53.640Z,3.03
2019-01-08T22:28:22.217Z,3.50
2019-01-08T22:30:50.791Z,3.37
2019-01-08T22:33:19.341Z,2.87
2019-01-08T22:35:47.923Z,3.90
2019-01-08T22:38:16.498Z,3.80
2019-01-08T22:40:45.066Z,3.50
2019-01-08T22:43:13.638Z,3.37
2019-01-08T22:45:42.133Z,4.30
2019-01-08T22:48:10.714Z,4.23
2019-01-08T22:50:39.273Z,5.20
2019-01-08T22:53:07.777Z,3.57
2019-01-08T22:55:36.258Z,5.23
2019-01-08T22:58:04.778Z,4.50
2019-01-08T23:00:37.973Z,4.17
2019-01-08T23:03:06.569Z,3.50
2019-01-08T23:05:35.133Z,3.87
2019-01-08T23:08:03.781Z,3.87
2019-01-08T23:10:32.342Z,3.60
2019-01-08T23:13:01.299Z,3.77
2019-01-08T23:15:29.998Z,3.23
2019-01-08T23:17:58.520Z,3.27
2019-01-08T23:20:27.149Z,3.30
2019-01-08T23:22:55.653Z,3.57
2019-01-08T23:25:24.278Z,2.43
2019-01-08T23:27:52.863Z,2.93
2019-01-08T23:30:21.442Z,3.03
2019-01-08T23:32:50.098Z,2.63
2019-01-08T23:35:19.553Z,2.00
2019-01-08T23:37:48.357Z,1.90
2019-01-08T23:40:16.915Z,2.30
2019-01-08T23:42:45.499Z,1.80
2019-01-08T23:45:14.074Z,2.30
2019-01-08T23:47:42.694Z,2.53
2019-01-08T23:50:11.269Z,2.30
2019-01-08T23:52:42.827Z,2.40
2019-01-08T23:55:11.480Z,2.00
2019-01-08T23:57:41.177Z,2.33
